Nile, Texas
Current Conditions -  °F | °C
As of 9:58 PM on Thursday 18 Dec 2014 (Local Time) from KGRK Reporting Station
Overcast Overcast  
Wind Chill: 42°   Ceiling: 600
Heat Index: 48°   Visibility: 10mi
Dew Point: 46°   Wind: 14mph
Humidity: 93%   Direction: 30°NNE
Pressure: 30.13"   Gusts: NA
Location:  30.5951°N, 97.1399°W
Report Text: KGRK 190358Z AUTO 03012KT 10SM OVC006 09/08 A3013 RMK AO2 LTG DSNT SE-S SLP204 T00870077 $
Loading
Personal Weather Stations






























Interactive Weather Map New forecast layout! Learn more

10-Day Weather Forecast

Advertisements
Track Severe Weather on mobile